KPSK Airport Information

Runway Information
Runway 06 Length 6201 ft width 150 ft
Elevation 2105 ft Threshold 0 ft Heading 52
Runway 24 Length 6201 ft Width 150 ft
Elevation 2073 ft Threshold 0 ft Heading 232
Airport Frequencies
Type A/D Name ROANOKE AP Frequency 126 MHZ
Type AWOS Name AWOS 3 Frequency 127.375 MHZ
Type CLD Name CLNC DEL Frequency 121.7 MHZ
Type RDO Name LEESBURG R Frequency 122.3 MHZ
Type UNIC Name CTAF/UNICO Frequency 122.7 MHZ
Airport Navaids
Airport Weather Information & NOTAM
ADDS - METARS form results

(0807 UTC 05 December 2020)
Data provider http://aviationweather.gov/metar/data/
 
METAR text: KPSK 050755Z AUTO 31011G20KT 10SM -RA BKN024 OVC029 05/03 A2987 RMK AO2 T00490026
Conditions at: KPSK (DUBLIN/NEW RIV , VA, US) observed 0755 UTC 05 December 2020
Temperature: 4.9°C (41°F)
Dewpoint: 2.6°C (37°F) [RH = 85%]
Pressure (altimeter): 29.87 inches Hg (1011.6 mb)
Winds: from the NW (310 degrees) at 13 MPH (11 knots; 5.7 m/s)
gusting to 23 MPH (20 knots; 10.3 m/s)
Visibility: 10 or more miles (16+ km)
Ceiling: 2400 feet AGL
Clouds: broken clouds at 2400 feet AGL
overcast cloud deck at 2900 feet AGL
Weather: -RA  (light rain)

METAR text: KPSK 050735Z AUTO 29017G23KT 10SM OVC024 05/03 A2986 RMK AO2 T00530027
Conditions at: KPSK (DUBLIN/NEW RIV , VA, US) observed 0735 UTC 05 December 2020
Temperature: 5.3°C (42°F)
Dewpoint: 2.7°C (37°F) [RH = 83%]
Pressure (altimeter): 29.86 inches Hg (1011.3 mb)
Winds: from the WNW (290 degrees) at 20 MPH (17 knots; 8.7 m/s)
gusting to 26 MPH (23 knots; 11.8 m/s)
Visibility: 10 or more miles (16+ km)
Ceiling: 2400 feet AGL
Clouds: overcast cloud deck at 2400 feet AGL
Weather: automated observation with no human augmentation;
there may or may not be significant weather present at this time

METAR text: KPSK 050715Z AUTO 29011G24KT 10SM OVC022 06/03 A2986 RMK AO2 T00550029
Conditions at: KPSK (DUBLIN/NEW RIV , VA, US) observed 0715 UTC 05 December 2020
Temperature: 5.5°C (42°F)
Dewpoint: 2.9°C (37°F) [RH = 83%]
Pressure (altimeter): 29.86 inches Hg (1011.3 mb)
Winds: from the WNW (290 degrees) at 13 MPH (11 knots; 5.7 m/s)
gusting to 28 MPH (24 knots; 12.3 m/s)
Visibility: 10 or more miles (16+ km)
Ceiling: 2200 feet AGL
Clouds: overcast cloud deck at 2200 feet AGL
Weather: automated observation with no human augmentation;
there may or may not be significant weather present at this time